createdAt,value
2022-08-30T03:50:14.779Z,29.4
2022-08-30T03:55:52.707Z,29.3
2022-08-30T04:01:44.214Z,29.3
2022-08-30T04:07:10.589Z,29.2
2022-08-30T04:12:55.476Z,29.2
2022-08-30T04:18:02.826Z,29.1
2022-08-30T04:23:27.519Z,29.1
2022-08-30T04:29:02.654Z,29
2022-08-30T04:34:28.288Z,29
2022-08-30T04:40:07.522Z,29
2022-08-30T04:45:45.973Z,28.9
2022-08-30T04:51:08.768Z,28.9
2022-08-30T04:56:46.916Z,28.9
2022-08-30T05:02:35.491Z,28.9
2022-08-30T05:08:13.879Z,28.8
2022-08-30T05:13:53.584Z,28.8
2022-08-30T05:19:37.785Z,28.8
2022-08-30T05:25:15.162Z,28.8
2022-08-30T05:30:55.359Z,28.8
2022-08-30T05:36:35.940Z,28.8
2022-08-30T05:42:35.474Z,28.6
2022-08-30T05:48:29.501Z,28.6
2022-08-30T05:54:06.787Z,28.6
2022-08-30T05:59:44.861Z,28.5
2022-08-30T06:05:30.803Z,28.4
2022-08-30T06:11:30.511Z,28.4
2022-08-30T06:17:11.425Z,28.4
2022-08-30T06:22:58.170Z,28.4
2022-08-30T06:29:06.841Z,28.3
2022-08-30T06:34:29.927Z,28.3
2022-08-30T06:40:37.148Z,28.3
2022-08-30T06:46:17.723Z,28.3
2022-08-30T06:52:00.632Z,28.3
2022-08-30T06:57:48.292Z,28.3
2022-08-30T07:03:28.693Z,28.3
2022-08-30T07:09:13.046Z,28.2
2022-08-30T07:14:53.169Z,28.3
2022-08-30T07:20:44.031Z,28.1
2022-08-30T07:32:22.661Z,28.2
2022-08-30T07:38:07.747Z,28.2
2022-08-30T07:43:48.803Z,28.1
2022-08-30T07:49:29.770Z,28.1
2022-08-30T07:54:58.650Z,28.1
2022-08-30T08:00:41.206Z,28.1
